createdAt,value
2017-08-06T00:02:00.744Z,16.40
2017-08-06T00:04:28.199Z,16.40
2017-08-06T00:06:55.654Z,16.40
2017-08-06T00:09:23.095Z,16.30
2017-08-06T00:11:50.543Z,16.30
2017-08-06T00:14:17.991Z,16.30
2017-08-06T00:16:46.199Z,16.40
2017-08-06T00:19:13.645Z,16.40
2017-08-06T00:21:41.087Z,16.30
2017-08-06T00:24:08.524Z,16.30
2017-08-06T00:26:35.982Z,16.30
2017-08-06T00:29:04.195Z,16.20
2017-08-06T00:31:31.652Z,16.20
2017-08-06T00:33:59.090Z,16.30
2017-08-06T00:36:26.564Z,16.30
2017-08-06T00:38:54.011Z,16.30
2017-08-06T00:41:21.451Z,16.10
2017-08-06T00:43:48.899Z,16.00
2017-08-06T00:46:16.343Z,15.90
2017-08-06T00:48:44.559Z,15.80
2017-08-06T00:51:11.995Z,15.80
2017-08-06T00:53:39.438Z,15.90
2017-08-06T00:56:07.648Z,15.80
2017-08-06T00:58:35.135Z,15.80
2017-08-06T01:01:02.599Z,15.70
2017-08-06T01:03:30.059Z,15.80
2017-08-06T01:05:57.511Z,15.70
2017-08-06T01:08:24.967Z,15.60
2017-08-06T01:10:52.406Z,15.70
2017-08-06T01:13:19.863Z,15.70
2017-08-06T01:15:47.307Z,15.60
2017-08-06T01:18:14.756Z,15.60
2017-08-06T01:20:42.206Z,15.70
2017-08-06T01:23:09.650Z,15.70
2017-08-06T01:25:37.100Z,15.70
2017-08-06T01:28:04.535Z,15.80
2017-08-06T01:30:32.751Z,15.40
2017-08-06T01:33:00.191Z,15.40
2017-08-06T01:35:27.638Z,15.50
2017-08-06T01:37:55.091Z,15.40
2017-08-06T01:40:23.299Z,15.40
2017-08-06T01:42:50.736Z,15.40
2017-08-06T01:45:18.204Z,15.40
2017-08-06T01:47:45.648Z,15.50
2017-08-06T01:50:13.086Z,15.50
2017-08-06T01:52:40.536Z,15.60
2017-08-06T01:55:07.987Z,15.60
2017-08-06T01:57:36.203Z,15.70
2017-08-06T02:00:03.660Z,15.70
2017-08-06T02:02:31.115Z,15.60
2017-08-06T02:04:58.554Z,15.60
2017-08-06T02:07:26.002Z,15.60
2017-08-06T02:09:53.447Z,15.60
2017-08-06T02:12:21.659Z,15.80
2017-08-06T02:14:49.095Z,15.80
2017-08-06T02:17:16.551Z,15.90
2017-08-06T02:19:43.987Z,15.80
2017-08-06T02:22:12.199Z,15.70
2017-08-06T02:24:39.662Z,15.70
2017-08-06T02:27:07.111Z,15.60
2017-08-06T02:29:34.562Z,15.70
2017-08-06T02:32:02.000Z,15.70
2017-08-06T02:34:29.463Z,15.70
2017-08-06T02:36:56.894Z,15.70
2017-08-06T02:39:24.342Z,15.70
2017-08-06T02:41:52.552Z,15.40
2017-08-06T02:44:19.999Z,15.40
2017-08-06T02:46:47.439Z,15.60
2017-08-06T02:49:15.651Z,15.60
2017-08-06T02:51:43.090Z,15.60
2017-08-06T02:54:10.555Z,15.50
2017-08-06T02:56:37.991Z,15.50
2017-08-06T02:59:05.435Z,15.50
2017-08-06T03:01:32.885Z,15.50
2017-08-06T03:04:01.087Z,15.50
2017-08-06T03:06:28.534Z,15.40
2017-08-06T03:08:57.559Z,15.40
2017-08-06T03:11:25.011Z,15.40
2017-08-06T03:13:52.456Z,15.20
2017-08-06T03:16:19.894Z,15.20
2017-08-06T03:18:47.342Z,15.20
2017-08-06T03:21:15.551Z,15.20
2017-08-06T03:23:42.991Z,15.10
2017-08-06T03:26:10.434Z,15.10
2017-08-06T03:28:37.873Z,15.10
2017-08-06T03:31:06.097Z,15.10
2017-08-06T03:33:33.535Z,15.00
2017-08-06T03:36:00.979Z,15.10
2017-08-06T03:38:28.427Z,15.30
2017-08-06T03:40:56.639Z,15.40
2017-08-06T03:43:24.093Z,15.30
2017-08-06T03:45:51.534Z,15.40
2017-08-06T03:48:18.980Z,15.10
2017-08-06T03:50:46.410Z,15.10
2017-08-06T03:53:14.626Z,15.10
2017-08-06T03:55:42.067Z,15.10
2017-08-06T03:58:10.286Z,15.00
2017-08-06T04:00:37.723Z,15.00
2017-08-06T04:03:05.178Z,14.90
2017-08-06T04:05:32.628Z,15.00
2017-08-06T04:08:00.057Z,15.00
2017-08-06T04:10:28.267Z,14.90
2017-08-06T04:12:55.718Z,14.90
2017-08-06T04:15:23.180Z,14.90
2017-08-06T04:17:50.614Z,14.90
2017-08-06T04:20:18.063Z,15.10
2017-08-06T04:22:45.519Z,15.20
2017-08-06T04:25:12.958Z,15.20
2017-08-06T04:27:41.176Z,15.30
2017-08-06T04:30:08.630Z,15.30
2017-08-06T04:32:36.074Z,15.30
2017-08-06T04:35:03.540Z,15.40
2017-08-06T04:37:30.970Z,15.40
2017-08-06T04:39:58.411Z,15.40
2017-08-06T04:42:26.631Z,15.90
2017-08-06T04:44:54.083Z,15.90
2017-08-06T04:47:21.547Z,15.90
2017-08-06T04:49:48.998Z,15.60
2017-08-06T04:52:16.460Z,15.70
2017-08-06T04:54:43.911Z,15.70
2017-08-06T04:57:11.367Z,15.60
2017-08-06T04:59:38.810Z,15.50
2017-08-06T05:02:06.247Z,15.50
2017-08-06T05:04:33.683Z,15.60
2017-08-06T05:07:01.912Z,15.90
2017-08-06T05:09:29.350Z,15.90
2017-08-06T05:11:56.786Z,15.90
2017-08-06T05:14:24.996Z,16.10
2017-08-06T05:16:52.449Z,16.10
2017-08-06T05:19:19.900Z,16.40
2017-08-06T05:21:47.335Z,16.50
2017-08-06T05:24:14.813Z,16.20
2017-08-06T05:26:42.246Z,16.40
2017-08-06T05:29:09.706Z,16.60
2017-08-06T05:31:37.142Z,16.60
2017-08-06T05:34:05.361Z,16.60
2017-08-06T05:36:32.818Z,16.60
2017-08-06T05:39:00.289Z,16.80
2017-08-06T05:41:27.732Z,17.00
2017-08-06T05:43:55.185Z,17.00
2017-08-06T05:46:22.642Z,16.90
2017-08-06T05:48:50.087Z,16.90
2017-08-06T05:51:17.526Z,17.00
2017-08-06T05:53:44.989Z,16.80
2017-08-06T05:56:12.435Z,16.90
2017-08-06T05:58:39.878Z,17.10
2017-08-06T06:01:08.134Z,17.10
2017-08-06T06:03:35.575Z,17.10
2017-08-06T06:06:03.055Z,17.40
2017-08-06T06:08:30.499Z,18.60
2017-08-06T06:10:58.074Z,19.10
2017-08-06T06:13:25.515Z,20.20
2017-08-06T06:15:52.960Z,21.60
2017-08-06T06:18:20.417Z,22.00
2017-08-06T06:20:47.918Z,21.30
2017-08-06T06:23:15.366Z,22.90
2017-08-06T06:25:43.571Z,25.90
2017-08-06T06:28:11.039Z,25.80
2017-08-06T06:30:38.482Z,26.40
2017-08-06T06:33:05.919Z,24.20
2017-08-06T06:35:34.162Z,23.20
2017-08-06T06:38:01.607Z,23.10
2017-08-06T06:40:29.052Z,21.40
2017-08-06T06:42:56.502Z,22.20
2017-08-06T06:45:23.955Z,22.70
2017-08-06T06:47:51.406Z,21.90
2017-08-06T06:50:18.864Z,23.30
2017-08-06T06:52:46.304Z,22.40
2017-08-06T06:55:13.754Z,21.90
2017-08-06T06:57:41.186Z,20.50
2017-08-06T07:00:08.656Z,21.10
2017-08-06T07:02:36.587Z,21.50
2017-08-06T07:05:04.023Z,21.60
2017-08-06T07:07:31.466Z,21.40
2017-08-06T07:09:59.041Z,21.30
2017-08-06T07:12:26.506Z,22.10
2017-08-06T07:14:53.946Z,22.90
2017-08-06T07:17:21.562Z,23.00
2017-08-06T07:19:49.773Z,23.90
2017-08-06T07:22:17.232Z,23.90
2017-08-06T07:24:44.683Z,24.00
2017-08-06T07:27:12.127Z,22.10
2017-08-06T07:29:39.574Z,23.20
2017-08-06T07:32:07.031Z,23.60
2017-08-06T07:34:34.470Z,24.80
2017-08-06T07:37:01.912Z,26.20
2017-08-06T07:39:29.363Z,24.10
2017-08-06T07:41:56.798Z,24.10
2017-08-06T07:44:24.242Z,25.50
2017-08-06T07:46:51.688Z,26.90
2017-08-06T07:49:19.143Z,27.50
2017-08-06T07:51:46.593Z,26.80
2017-08-06T07:54:14.043Z,26.70
2017-08-06T07:56:41.490Z,27.50
2017-08-06T07:59:08.935Z,27.80
2017-08-06T08:01:36.379Z,27.90
2017-08-06T08:04:04.627Z,27.40
2017-08-06T08:06:32.078Z,27.40
2017-08-06T08:08:59.522Z,27.10
2017-08-06T08:11:26.971Z,26.10
2017-08-06T08:13:54.491Z,26.30
2017-08-06T08:16:22.699Z,26.30
2017-08-06T08:18:50.158Z,26.30
2017-08-06T08:21:17.598Z,24.90
2017-08-06T08:23:45.039Z,25.00
2017-08-06T08:26:12.482Z,25.50
2017-08-06T08:28:40.699Z,23.80
2017-08-06T08:31:08.138Z,23.70
2017-08-06T08:33:35.578Z,24.30
2017-08-06T08:36:03.026Z,24.70
2017-08-06T08:38:31.243Z,24.60
2017-08-06T08:40:58.684Z,24.60
2017-08-06T08:43:26.192Z,25.90
2017-08-06T08:45:53.644Z,27.10
2017-08-06T08:48:21.079Z,28.10
2017-08-06T08:50:48.522Z,28.80
2017-08-06T08:53:15.958Z,28.50
2017-08-06T08:55:43.408Z,28.60
2017-08-06T08:58:10.853Z,28.50
2017-08-06T09:00:39.072Z,27.40
2017-08-06T09:03:06.514Z,27.30
2017-08-06T09:05:33.964Z,27.20
2017-08-06T09:08:01.424Z,28.70
2017-08-06T09:10:28.962Z,29.10
2017-08-06T09:12:57.193Z,29.10
2017-08-06T09:15:24.715Z,29.10
2017-08-06T09:17:52.159Z,28.30
2017-08-06T09:20:19.603Z,29.30
2017-08-06T09:22:47.824Z,27.40
2017-08-06T09:25:15.271Z,27.30
2017-08-06T09:27:42.727Z,28.60
2017-08-06T09:30:10.168Z,29.40
2017-08-06T09:32:37.620Z,30.20
2017-08-06T09:35:05.067Z,30.90
2017-08-06T09:37:32.518Z,31.20
2017-08-06T09:40:00.723Z,30.40
2017-08-06T09:42:28.166Z,30.40
2017-08-06T09:44:55.609Z,28.90
2017-08-06T09:47:23.042Z,28.60
2017-08-06T09:49:51.264Z,30.90
2017-08-06T09:52:18.724Z,30.90
2017-08-06T09:54:46.195Z,31.10
2017-08-06T09:57:13.636Z,31.20
2017-08-06T09:59:41.091Z,30.10
2017-08-06T10:02:08.537Z,29.50
2017-08-06T10:04:35.978Z,29.30
2017-08-06T10:07:03.414Z,29.70
2017-08-06T10:09:30.871Z,27.70
2017-08-06T10:11:59.087Z,28.50
2017-08-06T10:14:26.525Z,28.50
2017-08-06T10:16:53.969Z,29.00
2017-08-06T10:19:22.174Z,29.60
2017-08-06T10:21:49.636Z,29.60
2017-08-06T10:24:17.112Z,29.70
2017-08-06T10:26:44.554Z,28.70
2017-08-06T10:29:12.005Z,29.50
2017-08-06T10:31:39.456Z,29.40
2017-08-06T10:34:06.920Z,29.40
2017-08-06T10:36:34.371Z,26.30
2017-08-06T10:39:01.927Z,26.20
2017-08-06T10:41:29.361Z,26.60
2017-08-06T10:43:56.798Z,27.20
2017-08-06T10:46:25.017Z,27.50
2017-08-06T10:48:52.471Z,27.50
2017-08-06T10:51:19.932Z,28.30
2017-08-06T10:53:47.395Z,28.70
2017-08-06T10:56:14.843Z,29.10
2017-08-06T10:58:42.296Z,28.70
2017-08-06T11:01:09.726Z,28.30
2017-08-06T11:03:37.171Z,26.60
2017-08-06T11:06:05.383Z,27.00
2017-08-06T11:08:32.840Z,27.00
2017-08-06T11:11:00.297Z,27.20
2017-08-06T11:13:27.753Z,27.50
2017-08-06T11:15:55.219Z,26.00
2017-08-06T11:18:22.672Z,25.30
2017-08-06T11:20:50.120Z,24.50
2017-08-06T11:23:17.575Z,25.30
2017-08-06T11:25:45.032Z,25.80
2017-08-06T11:28:12.494Z,25.20
2017-08-06T11:30:39.944Z,25.70
2017-08-06T11:33:07.412Z,26.20
2017-08-06T11:35:34.859Z,25.40
2017-08-06T11:38:02.312Z,25.50
2017-08-06T11:40:29.767Z,25.80
2017-08-06T11:42:57.210Z,24.80
2017-08-06T11:45:25.022Z,25.10
2017-08-06T11:47:52.484Z,24.90
2017-08-06T11:50:19.946Z,24.80
2017-08-06T11:52:47.409Z,25.30
2017-08-06T11:55:14.852Z,25.60
2017-08-06T11:57:42.327Z,25.70
2017-08-06T12:00:10.538Z,26.70
2017-08-06T12:02:37.984Z,26.60
2017-08-06T12:05:05.895Z,26.60
2017-08-06T12:07:33.340Z,26.80
2017-08-06T12:10:00.779Z,26.90
2017-08-06T12:12:28.247Z,26.80
2017-08-06T12:14:55.694Z,26.70
2017-08-06T12:17:23.147Z,26.90
2017-08-06T12:19:50.592Z,27.20
2017-08-06T12:22:18.046Z,27.60
2017-08-06T12:24:45.496Z,27.80
2017-08-06T12:27:12.945Z,28.20
2017-08-06T12:29:41.185Z,28.90
2017-08-06T12:32:08.638Z,28.90
2017-08-06T12:34:36.643Z,29.20
2017-08-06T12:37:04.749Z,28.00
2017-08-06T12:39:32.204Z,28.10
2017-08-06T12:41:59.694Z,26.70
2017-08-06T12:44:27.139Z,27.00
2017-08-06T12:46:54.588Z,27.20
2017-08-06T12:49:22.046Z,27.30
2017-08-06T12:51:49.498Z,27.40
2017-08-06T12:54:16.957Z,25.70
2017-08-06T12:56:44.413Z,26.20
2017-08-06T12:59:11.854Z,26.50
2017-08-06T13:01:39.312Z,27.10
2017-08-06T13:04:06.839Z,27.00
2017-08-06T13:06:34.283Z,26.20
2017-08-06T13:09:02.500Z,26.70
2017-08-06T13:11:29.939Z,26.70
2017-08-06T13:13:57.374Z,26.80
2017-08-06T13:16:25.595Z,27.80
2017-08-06T13:18:53.039Z,27.80
2017-08-06T13:21:20.495Z,27.50
2017-08-06T13:23:47.952Z,27.30
2017-08-06T13:26:15.391Z,27.50
2017-08-06T13:28:42.831Z,27.20
2017-08-06T13:31:10.272Z,26.90
2017-08-06T13:33:38.495Z,27.00
2017-08-06T13:36:05.954Z,27.00
2017-08-06T13:38:33.412Z,26.90
2017-08-06T13:41:00.864Z,26.80
2017-08-06T13:43:28.316Z,27.20
2017-08-06T13:45:55.768Z,26.60
2017-08-06T13:48:23.241Z,26.60
2017-08-06T13:50:50.692Z,26.30
2017-08-06T13:53:18.144Z,25.50
2017-08-06T13:55:45.598Z,25.60
2017-08-06T13:58:13.055Z,25.80
2017-08-06T14:00:40.512Z,26.10
2017-08-06T14:03:07.967Z,26.10
2017-08-06T14:05:35.422Z,26.10
2017-08-06T14:08:02.883Z,26.40
2017-08-06T14:10:30.336Z,26.80
2017-08-06T14:12:57.795Z,26.90
2017-08-06T14:15:25.251Z,26.90
2017-08-06T14:17:52.691Z,26.70
2017-08-06T14:20:20.166Z,26.50
2017-08-06T14:22:47.612Z,26.30
2017-08-06T14:25:15.074Z,26.50
2017-08-06T14:27:42.525Z,26.60
2017-08-06T14:30:09.982Z,26.40
2017-08-06T14:32:37.431Z,24.90
2017-08-06T14:35:04.867Z,24.80
2017-08-06T14:37:32.321Z,25.30
2017-08-06T14:40:00.531Z,26.20
2017-08-06T14:42:27.987Z,26.10
2017-08-06T14:44:55.428Z,26.40
2017-08-06T14:47:22.874Z,26.70
2017-08-06T14:49:50.314Z,26.10
2017-08-06T14:52:18.532Z,25.70
2017-08-06T14:54:45.983Z,25.70
2017-08-06T14:57:13.440Z,25.90
2017-08-06T14:59:40.882Z,25.70
2017-08-06T15:02:08.327Z,25.50
2017-08-06T15:04:35.787Z,24.70
2017-08-06T15:07:03.227Z,24.50
2017-08-06T15:09:31.441Z,24.50
2017-08-06T15:11:58.895Z,24.50
2017-08-06T15:14:26.352Z,24.50
2017-08-06T15:16:53.799Z,24.70
2017-08-06T15:19:21.244Z,24.30
2017-08-06T15:21:48.679Z,24.30
2017-08-06T15:24:16.896Z,24.10
2017-08-06T15:26:44.347Z,24.10
2017-08-06T15:29:11.820Z,24.10
2017-08-06T15:31:39.258Z,23.90
2017-08-06T15:34:06.714Z,24.20
2017-08-06T15:36:34.170Z,24.10
2017-08-06T15:39:01.614Z,24.20
2017-08-06T15:41:29.071Z,24.30
2017-08-06T15:43:56.519Z,24.30
2017-08-06T15:46:23.978Z,24.40
2017-08-06T15:48:51.414Z,24.50
2017-08-06T15:51:19.644Z,24.60
2017-08-06T15:53:47.151Z,24.60
2017-08-06T15:56:15.364Z,24.40
2017-08-06T15:58:42.815Z,24.30
2017-08-06T16:01:10.271Z,24.40
2017-08-06T16:03:37.728Z,23.90
2017-08-06T16:06:05.186Z,24.00
2017-08-06T16:08:32.626Z,23.80
2017-08-06T16:11:00.076Z,23.70
2017-08-06T16:13:27.536Z,23.60
2017-08-06T16:15:54.973Z,23.70
2017-08-06T16:18:22.419Z,23.70
2017-08-06T16:20:49.854Z,23.90
2017-08-06T16:23:17.298Z,24.10
2017-08-06T16:25:44.734Z,24.10
2017-08-06T16:28:12.193Z,24.00
2017-08-06T16:30:39.664Z,23.90
2017-08-06T16:33:07.111Z,24.00
2017-08-06T16:35:34.562Z,23.90
2017-08-06T16:38:02.006Z,23.80
2017-08-06T16:40:29.459Z,23.70
2017-08-06T16:42:56.907Z,23.70
2017-08-06T16:45:24.362Z,23.40
2017-08-06T16:47:51.797Z,23.60
2017-08-06T16:50:19.239Z,23.50
2017-08-06T16:52:47.452Z,23.70
2017-08-06T16:55:14.907Z,23.70
2017-08-06T16:57:42.366Z,23.90
2017-08-06T17:00:09.836Z,23.90
2017-08-06T17:02:37.275Z,23.60
2017-08-06T17:05:04.714Z,23.60
2017-08-06T17:07:32.163Z,23.80
2017-08-06T17:09:59.609Z,23.60
2017-08-06T17:12:27.830Z,23.60
2017-08-06T17:14:55.274Z,23.60
2017-08-06T17:17:22.727Z,23.60
2017-08-06T17:19:50.166Z,23.50
2017-08-06T17:22:17.685Z,23.50
2017-08-06T17:24:45.136Z,23.30
2017-08-06T17:27:12.580Z,23.40
2017-08-06T17:29:40.042Z,23.40
2017-08-06T17:32:07.540Z,23.40
2017-08-06T17:34:34.995Z,23.30
2017-08-06T17:37:03.198Z,23.20
2017-08-06T17:39:30.670Z,23.20
2017-08-06T17:41:58.115Z,23.20
2017-08-06T17:44:25.566Z,23.20
2017-08-06T17:46:53.006Z,23.00
2017-08-06T17:49:20.461Z,23.00
2017-08-06T17:51:47.890Z,23.00
2017-08-06T17:54:16.111Z,22.40
2017-08-06T17:56:43.565Z,22.30
2017-08-06T17:59:11.008Z,22.50
2017-08-06T18:01:38.445Z,22.50
2017-08-06T18:04:05.902Z,22.50
2017-08-06T18:06:33.343Z,22.40
2017-08-06T18:09:01.586Z,22.10
2017-08-06T18:11:29.040Z,22.00
2017-08-06T18:13:56.492Z,21.90
2017-08-06T18:16:23.947Z,20.70
2017-08-06T18:18:51.392Z,20.60
2017-08-06T18:21:18.845Z,20.40
2017-08-06T18:23:46.274Z,20.60
2017-08-06T18:26:13.719Z,20.60
2017-08-06T18:28:41.933Z,20.20
2017-08-06T18:31:09.391Z,20.20
2017-08-06T18:33:36.866Z,19.70
2017-08-06T18:36:04.310Z,19.40
2017-08-06T18:38:31.758Z,19.40
2017-08-06T18:40:59.214Z,19.30
2017-08-06T18:43:26.660Z,19.10
2017-08-06T18:45:54.127Z,19.20
2017-08-06T18:48:21.577Z,19.00
2017-08-06T18:50:49.026Z,18.90
2017-08-06T18:53:16.470Z,19.00
2017-08-06T18:55:43.920Z,19.10
2017-08-06T18:58:11.380Z,19.20
2017-08-06T19:00:39.578Z,18.70
2017-08-06T19:03:07.040Z,18.60
2017-08-06T19:05:34.482Z,18.50
2017-08-06T19:08:01.922Z,18.40
2017-08-06T19:10:29.407Z,18.20
2017-08-06T19:12:56.863Z,18.30
2017-08-06T19:15:24.304Z,18.50
2017-08-06T19:17:51.752Z,18.40
2017-08-06T19:20:19.211Z,18.40
2017-08-06T19:22:46.687Z,18.30
2017-08-06T19:25:14.132Z,18.30
2017-08-06T19:27:41.571Z,18.20
2017-08-06T19:30:09.021Z,18.20
2017-08-06T19:32:37.230Z,18.10
2017-08-06T19:35:04.686Z,18.10
2017-08-06T19:37:32.128Z,18.10
2017-08-06T19:39:59.571Z,18.00
2017-08-06T19:42:27.008Z,17.80
2017-08-06T19:44:55.226Z,17.70
2017-08-06T19:47:22.655Z,17.70
2017-08-06T19:49:50.095Z,17.70
2017-08-06T19:52:18.311Z,17.40
2017-08-06T19:54:45.769Z,17.30
2017-08-06T19:57:13.220Z,17.40
2017-08-06T19:59:40.655Z,17.30
2017-08-06T20:02:08.098Z,17.10
2017-08-06T20:04:36.311Z,16.80
2017-08-06T20:07:03.751Z,16.70
2017-08-06T20:09:31.190Z,16.50
2017-08-06T20:11:59.399Z,16.80
2017-08-06T20:14:26.852Z,16.70
2017-08-06T20:16:54.310Z,16.80
2017-08-06T20:19:21.766Z,16.80
2017-08-06T20:21:49.223Z,16.70
2017-08-06T20:24:16.663Z,16.70
2017-08-06T20:26:44.115Z,16.50
2017-08-06T20:29:11.546Z,16.50
2017-08-06T20:31:39.766Z,16.50
2017-08-06T20:34:07.222Z,16.50
2017-08-06T20:36:34.663Z,16.30
2017-08-06T20:39:02.166Z,16.00
2017-08-06T20:41:29.603Z,16.00
2017-08-06T20:43:57.059Z,16.00
2017-08-06T20:46:24.506Z,16.00
2017-08-06T20:48:51.960Z,16.10
2017-08-06T20:51:19.408Z,16.20
2017-08-06T20:53:46.851Z,15.70
2017-08-06T20:56:14.290Z,15.40
2017-08-06T20:58:42.530Z,15.60
2017-08-06T21:01:09.978Z,15.60
2017-08-06T21:03:37.446Z,15.70
2017-08-06T21:06:04.891Z,15.50
2017-08-06T21:08:32.334Z,15.50
2017-08-06T21:10:59.795Z,15.70
2017-08-06T21:13:27.253Z,15.60
2017-08-06T21:15:54.706Z,15.70
2017-08-06T21:18:22.149Z,15.70
2017-08-06T21:20:49.606Z,15.60
2017-08-06T21:23:17.076Z,15.50
2017-08-06T21:25:44.533Z,15.40
2017-08-06T21:28:12.011Z,15.30
2017-08-06T21:30:39.467Z,15.30
2017-08-06T21:33:06.897Z,15.20
2017-08-06T21:35:34.342Z,15.10
2017-08-06T21:38:01.781Z,15.20
2017-08-06T21:40:29.243Z,15.20
2017-08-06T21:42:56.683Z,15.20
2017-08-06T21:45:24.128Z,15.20
2017-08-06T21:47:52.343Z,15.00
2017-08-06T21:50:19.783Z,15.00
2017-08-06T21:52:47.236Z,15.00
2017-08-06T21:55:14.675Z,15.10
2017-08-06T21:57:42.883Z,15.00
2017-08-06T22:00:10.333Z,15.00
2017-08-06T22:02:37.770Z,14.80
2017-08-06T22:05:05.212Z,14.70
2017-08-06T22:07:33.431Z,14.40
2017-08-06T22:10:00.877Z,14.40
2017-08-06T22:12:28.314Z,14.40
2017-08-06T22:14:55.747Z,14.30
2017-08-06T22:17:23.972Z,14.60
2017-08-06T22:19:51.406Z,14.50
2017-08-06T22:22:18.848Z,14.70
2017-08-06T22:24:46.307Z,14.50
2017-08-06T22:27:13.748Z,14.40
2017-08-06T22:29:41.971Z,14.30
2017-08-06T22:32:09.406Z,14.30
2017-08-06T22:34:36.970Z,14.50
2017-08-06T22:37:04.403Z,14.50
2017-08-06T22:39:32.611Z,14.20
2017-08-06T22:42:00.055Z,14.20
2017-08-06T22:44:27.502Z,14.20
2017-08-06T22:46:54.955Z,14.20
2017-08-06T22:49:22.386Z,14.10
2017-08-06T22:51:50.604Z,14.00
2017-08-06T22:54:18.064Z,14.00
2017-08-06T22:56:45.498Z,14.10
2017-08-06T22:59:12.939Z,14.10
2017-08-06T23:01:41.155Z,14.10
2017-08-06T23:04:08.610Z,14.10
2017-08-06T23:06:36.051Z,14.00
2017-08-06T23:09:03.508Z,14.00
2017-08-06T23:11:30.947Z,14.00
2017-08-06T23:13:58.399Z,13.90
2017-08-06T23:16:26.608Z,13.80
2017-08-06T23:18:54.060Z,13.80
2017-08-06T23:21:21.495Z,13.90
2017-08-06T23:23:48.939Z,13.80
2017-08-06T23:26:16.390Z,13.70
2017-08-06T23:28:44.603Z,13.60
2017-08-06T23:31:12.043Z,13.60
2017-08-06T23:33:39.518Z,13.60
2017-08-06T23:36:06.955Z,13.60
2017-08-06T23:38:34.395Z,13.50
2017-08-06T23:41:01.844Z,13.50
2017-08-06T23:43:30.053Z,13.50
2017-08-06T23:45:57.518Z,13.50
2017-08-06T23:48:24.965Z,13.60
2017-08-06T23:50:52.408Z,13.60
2017-08-06T23:53:19.838Z,13.40
2017-08-06T23:55:48.061Z,13.30
2017-08-06T23:58:15.512Z,13.30
